Latest Coastal Weather Observations for Parndana

IDS60701

Issued at 12:51 am CST Sunday 5 July 2015 (issued every 10 minutes, with the page automatically refreshed every 10 minutes)

About coastal observations | Map of coastal stations | Coastal observations for SA | Marine services | Other Formats
Station Details ID: 022843 Name: PARNDANA CFS AWS Lat: -35.79 Lon: 137.25 Height: 165.0 m
Data from the previous 72 hours. | See also: Recent months at Parndana
Date/Time
CST
Temp

°C
Wind Pressure Rain
since 9am
mm
Weather Cloud Vis
km
Sea
Height
m
Swell
Dir
 
Speed
knots
Gust
knots
hPa Trend Height
m
Period
s
Dir
05/12:30am 10.5 NNW 6 8 - - 0.0 - - - - - - -
05/12:00am 9.7 N 7 8 - - 0.0 - - - - - - -
 
Date/Time
CST
Temp

°C
Wind Pressure Rain
since 9am
mm
Weather Cloud Vis
km
Sea
Height
m
Swell
Dir
 
Speed
knots
Gust
knots
hPa Trend Height
m
Period
s
Dir
04/11:30pm 9.4 N 7 8 - - 0.0 - - - - - - -
04/11:00pm 9.4 N 7 8 - - 0.0 - - - - - - -
04/10:30pm 9.3 N 5 7 - - 0.0 - - - - - - -
04/10:00pm 9.2 N 5 6 - - 0.0 - - - - - - -
04/09:30pm 9.1 N 6 8 - - 0.0 - - - - - - -
04/09:00pm 8.9 N 6 6 - - 0.0 - - - - - - -
04/08:30pm 8.7 N 5 6 - - 0.0 - - - - - - -
04/08:00pm 9.4 N 5 6 - - 0.0 - - - - - - -
04/07:30pm 9.3 N 4 5 - - 0.0 - - - - - - -
04/07:00pm 9.4 N 5 5 - - 0.0 - - - - - - -
04/06:30pm 10.0 N 5 5 - - 0.0 - - - - - - -
04/06:00pm 10.9 NNW 4 5 - - 0.0 - - - - - - -
04/05:30pm 11.7 N 4 5 - - 0.0 - - - - - - -
04/05:00pm 12.3 NW 5 6 - - 0.0 - - - - - - -
04/04:30pm 13.6 NNW 7 9 - - 0.0 - - - - - - -
04/04:00pm 14.2 NW 7 9 - - 0.0 - - - - - - -
04/03:30pm 14.5 NW 9 12 - - 0.0 - - - - - - -
04/03:00pm 14.7 NW 10 13 - - 0.0 - - - - - - -
04/02:30pm 14.9 NW 9 12 - - 0.0 - - - - - - -
04/02:00pm 14.9 NW 9 12 - - 0.0 - - - - - - -
04/01:30pm 15.2 NNW 9 12 - - 0.0 - - - - - - -
04/01:00pm 15.1 NW 10 13 - - 0.0 - - - - - - -
04/12:30pm 14.7 NW 10 13 - - 0.0 - - - - - - -
04/12:00pm 13.7 NNW 10 13 - - 0.0 - - - - - - -
04/11:30am 13.8 NW 9 14 - - 0.0 - - - - - - -
04/11:00am 13.6 NW 9 13 - - 0.0 - - - - - - -
04/10:30am 13.2 NNW 9 13 - - 0.0 - - - - - - -
04/10:00am 12.6 NNW 8 10 - - 0.0 - - - - - - -
04/09:30am 12.0 NNW 7 10 - - 0.0 - - - - - - -
04/09:00am 11.7 NNW 7 10 - - 0.2 - - - - - - -
04/08:30am 11.5 NNW 8 10 - - 0.2 - - - - - - -
04/08:00am 11.5 NNW 7 9 - - 0.2 - - - - - - -
04/07:30am 11.5 NNW 7 9 - - 0.2 - - - - - - -
04/07:00am 11.4 N 6 8 - - 0.2 - - - - - - -
04/06:30am 11.3 NNW 5 6 - - 0.2 - - - - - - -
04/06:00am 11.3 NNW 6 7 - - 0.2 - - - - - - -
04/05:30am 11.3 NNW 6 7 - - 0.2 - - - - - - -
04/05:00am 11.3 NNW 5 8 - - 0.2 - - - - - - -
04/04:30am 11.1 NNW 5 6 - - 0.2 - - - - - - -
04/04:00am 10.8 NW 4 4 - - 0.0 - - - - - - -
04/03:30am 10.8 N 4 6 - - 0.0 - - - - - - -
04/03:00am 11.1 N 7 9 - - 0.0 - - - - - - -
04/02:30am 11.1 NNW 7 9 - - 0.0 - - - - - - -
04/02:00am 10.6 N 5 6 - - 0.0 - - - - - - -
04/01:30am 10.7 NNW 4 5 - - 0.0 - - - - - - -
04/01:00am 10.1 NW 3 3 - - 0.0 - - - - - - -
04/12:30am 10.6 NNW 4 6 - - 0.0 - - - - - - -
04/12:00am 10.7 NNW 3 5 - - 0.0 - - - - - - -
 
Date/Time
CST
Temp

°C
Wind Pressure Rain
since 9am
mm
Weather Cloud Vis
km
Sea
Height
m
Swell
Dir
 
Speed
knots
Gust
knots
hPa Trend Height
m
Period
s
Dir
03/11:30pm 10.8 NNW 6 9 - - 0.0 - - - - - - -
03/11:00pm 10.7 NNW 7 9 - - 0.0 - - - - - - -
03/10:30pm 10.6 NNW 6 8 - - 0.0 - - - - - - -
03/10:00pm 10.6 NNW 6 7 - - 0.0 - - - - - - -
03/09:30pm 10.4 N 5 6 - - 0.0 - - - - - - -
03/09:00pm 10.4 N 6 7 - - 0.0 - - - - - - -
03/08:30pm 10.5 NNW 5 7 - - 0.0 - - - - - - -
03/08:00pm 10.3 N 5 8 - - 0.0 - - - - - - -
03/07:30pm 10.6 N 6 9 - - 0.0 - - - - - - -
03/07:00pm 10.5 NNW 5 7 - - 0.0 - - - - - - -
03/06:30pm 10.1 N 5 7 - - 0.0 - - - - - - -
03/06:00pm 9.7 N 5 6 - - 0.0 - - - - - - -
03/05:30pm 10.1 N 4 7 - - 0.0 - - - - - - -
03/05:00pm 10.2 NNW 5 7 - - 0.0 - - - - - - -
03/04:30pm 10.6 NNW 6 9 - - 0.0 - - - - - - -
03/04:00pm 10.7 NNW 8 11 - - 0.0 - - - - - - -
03/03:30pm 10.9 NNW 7 11 - - 0.0 - - - - - - -
03/03:00pm 11.0 NNW 8 12 - - 0.0 - - - - - - -
03/02:30pm 10.9 NNW 8 12 - - 0.0 - - - - - - -
03/02:00pm 10.8 N 8 11 - - 0.0 - - - - - - -
03/01:30pm 10.6 N 9 12 - - 0.0 - - - - - - -
03/01:00pm 10.9 NNW 10 13 - - 0.0 - - - - - - -
03/12:30pm 10.9 NNW 7 10 - - 0.0 - - - - - - -
03/12:00pm 11.1 N 7 10 - - 0.0 - - - - - - -
03/11:30am 11.5 NNE 9 11 - - 0.0 - - - - - - -
03/11:00am 10.9 N 7 10 - - 0.0 - - - - - - -
03/10:30am 10.4 NNE 5 7 - - 0.0 - - - - - - -
03/10:00am 9.8 NNE 3 4 - - 0.0 - - - - - - -
03/09:30am 9.4 NNE 3 3 - - 0.0 - - - - - - -
03/09:00am 8.9 NE 4 5 - - 0.0 - - - - - - -
03/08:30am 7.9 NE 1 2 - - 0.0 - - - - - - -
03/08:00am 8.3 ENE 1 2 - - 0.0 - - - - - - -
03/07:30am 7.5 ENE 1 2 - - 0.0 - - - - - - -
03/07:00am 8.3 E 1 2 - - 0.0 - - - - - - -
03/06:30am 7.7 CALM 0 0 - - 0.0 - - - - - - -
03/06:00am 7.9 E 4 4 - - 0.0 - - - - - - -
03/05:30am 7.4 WSW 1 2 - - 0.0 - - - - - - -
03/05:00am 7.5 SE 2 3 - - 0.0 - - - - - - -
03/04:30am 7.3 ESE 1 3 - - 0.0 - - - - - - -
03/04:00am 7.5 CALM 0 0 - - 0.0 - - - - - - -
03/03:30am 8.5 NW 2 4 - - 0.0 - - - - - - -
03/03:00am 7.3 WNW 2 3 - - 0.0 - - - - - - -
03/02:30am 6.8 WNW 3 4 - - 0.0 - - - - - - -
03/02:00am 6.3 NNW 1 3 - - 0.0 - - - - - - -
03/01:30am 5.4 CALM 0 0 - - 0.0 - - - - - - -
03/01:00am 5.9 ENE 2 2 - - 0.0 - - - - - - -
03/12:30am 5.8 NE 3 3 - - 0.0 - - - - - - -
03/12:00am 4.6 E 2 3 - - 0.0 - - - - - - -
 
Date/Time
CST
Temp

°C
Wind Pressure Rain
since 9am
mm
Weather Cloud Vis
km
Sea
Height
m
Swell
Dir
 
Speed
knots
Gust
knots
hPa Trend Height
m
Period
s
Dir
02/11:30pm 5.1 E 3 3 - - 0.0 - - - - - - -
02/11:00pm 5.4 E 2 3 - - 0.0 - - - - - - -
02/10:30pm 6.7 E 3 4 - - 0.0 - - - - - - -
02/10:00pm 6.0 ESE 4 4 - - 0.0 - - - - - - -
02/09:30pm 5.3 ESE 3 4 - - 0.0 - - - - - - -
02/09:00pm 5.3 ESE 3 3 - - 0.0 - - - - - - -
02/08:30pm 5.7 CALM 0 1 - - 0.0 - - - - - - -
02/08:00pm 6.0 ESE 1 2 - - 0.0 - - - - - - -
02/07:30pm 6.7 ESE 2 3 - - 0.0 - - - - - - -
02/07:00pm 7.4 SE 3 4 - - 0.0 - - - - - - -
02/06:30pm 7.5 SSE 3 4 - - 0.0 - - - - - - -
02/06:00pm 8.7 S 3 3 - - 0.0 - - - - - - -
02/05:30pm 9.2 S 3 3 - - 0.0 - - - - - - -
02/05:00pm 9.2 SSE 3 4 - - 0.0 - - - - - - -
02/04:30pm 10.7 SSE 6 7 - - 0.0 - - - - - - -
02/04:00pm 12.2 S 7 9 - - 0.0 - - - - - - -
02/03:30pm 11.7 S 5 6 - - 0.0 - - - - - - -
02/03:00pm 12.8 SSW 5 7 - - 0.0 - - - - - - -
02/02:30pm 11.9 S 7 9 - - 0.0 - - - - - - -
02/02:00pm 12.3 S 8 11 - - 0.0 - - - - - - -
02/01:30pm 12.6 S 7 11 - - 0.0 - - - - - - -
02/01:00pm 12.6 SW 6 10 - - 0.0 - - - - - - -
02/12:30pm 12.0 SSW 7 12 - - 0.0 - - - - - - -
02/12:00pm 12.2 S 8 12 - - 0.0 - - - - - - -
02/11:30am 12.0 SSW 9 12 - - 0.0 - - - - - - -
02/11:00am 12.1 S 10 14 - - 0.0 - - - - - - -
02/10:30am 11.6 S 9 14 - - 0.0 - - - - - - -
02/10:00am 11.6 SSW 4 6 - - 0.0 - - - - - - -
02/09:30am 10.8 SSW 5 7 - - 0.0 - - - - - - -
02/09:00am 10.4 SSW 6 7 - - 0.4 - - - - - - -
02/08:30am 10.0 SSW 6 8 - - 0.4 - - - - - - -
02/08:00am 9.9 SSW 6 7 - - 0.4 - - - - - - -
02/07:30am 10.3 SSW 7 11 - - 0.4 - - - - - - -
02/07:00am 10.9 SSW 10 13 - - 0.4 - - - - - - -
02/06:30am 11.1 SSW 8 10 - - 0.4 - - - - - - -
02/06:00am 10.9 SSW 7 9 - - 0.4 Recent precip. - - - - - -
02/05:30am 11.2 SSW 7 9 - - 0.4 - - - - - - -
02/05:00am 11.6 SW 7 12 - - 0.2 - - - - - - -
02/04:30am 10.9 WSW 7 9 - - 0.0 - - - - - - -
02/04:00am 10.1 W 8 9 - - 0.0 - - - - - - -
02/03:30am 9.6 W 7 8 - - 0.0 - - - - - - -
02/03:00am 8.8 WNW 6 7 - - 0.0 - - - - - - -
02/02:30am 9.3 WNW 7 7 - - 0.0 - - - - - - -
02/02:00am 9.8 WNW 7 8 - - 0.0 - - - - - - -
02/01:30am 9.7 WNW 7 9 - - 0.0 - - - - - - -
02/01:00am 8.8 WNW 6 8 - - 0.0 - - - - - - -

Other Formats:

Comma delimited format used in spreadsheet applications
http://www.bom.gov.au/fwo/IDS60701/IDS60701.94807.axf

JavaScript Object Notation format (JSON) in row-major order
http://www.bom.gov.au/fwo/IDS60701/IDS60701.94807.json